sensor_id;sensor_type;location;lat;lon;timestamp;temperature;humidity
52273;DHT22;38227;50.942;4.016;2023-05-02T00:01:15;12.40;99.90
52273;DHT22;38227;50.942;4.016;2023-05-02T00:03:46;12.40;99.90
52273;DHT22;38227;50.942;4.016;2023-05-02T00:06:14;12.50;99.90
52273;DHT22;38227;50.942;4.016;2023-05-02T00:08:47;12.60;99.90
52273;DHT22;38227;50.942;4.016;2023-05-02T00:11:15;12.70;99.90
52273;DHT22;38227;50.942;4.016;2023-05-02T00:13:47;12.80;99.90
52273;DHT22;38227;50.942;4.016;2023-05-02T00:16:15;12.70;99.90
52273;DHT22;38227;50.942;4.016;2023-05-02T00:18:53;12.70;99.90
52273;DHT22;38227;50.942;4.016;2023-05-02T00:21:21;12.80;99.90
52273;DHT22;38227;50.942;4.016;2023-05-02T00:23:55;12.80;99.90
52273;DHT22;38227;50.942;4.016;2023-05-02T00:26:23;12.70;99.90
52273;DHT22;38227;50.942;4.016;2023-05-02T00:29:03;12.80;99.90
52273;DHT22;38227;50.942;4.016;2023-05-02T00:31:31;12.90;99.90
52273;DHT22;38227;50.942;4.016;2023-05-02T00:34:04;12.80;99.90
52273;DHT22;38227;50.942;4.016;2023-05-02T00:36:32;12.80;99.90
52273;DHT22;38227;50.942;4.016;2023-05-02T00:39:10;12.70;99.90
52273;DHT22;38227;50.942;4.016;2023-05-02T00:41:38;12.70;99.90
52273;DHT22;38227;50.942;4.016;2023-05-02T00:44:09;12.70;99.90
52273;DHT22;38227;50.942;4.016;2023-05-02T00:46:38;12.80;99.90
52273;DHT22;38227;50.942;4.016;2023-05-02T00:49:10;12.90;99.90
52273;DHT22;38227;50.942;4.016;2023-05-02T00:51:38;12.80;99.90
52273;DHT22;38227;50.942;4.016;2023-05-02T00:54:16;12.70;99.90
52273;DHT22;38227;50.942;4.016;2023-05-02T00:56:44;12.60;99.90
52273;DHT22;38227;50.942;4.016;2023-05-02T00:59:14;12.50;99.90
52273;DHT22;38227;50.942;4.016;2023-05-02T01:05:14;12.60;99.90
52273;DHT22;38227;50.942;4.016;2023-05-02T01:11:13;12.70;99.90
52273;DHT22;38227;50.942;4.016;2023-05-02T01:13:42;12.60;99.90
52273;DHT22;38227;50.942;4.016;2023-05-02T01:16:13;12.70;99.90
52273;DHT22;38227;50.942;4.016;2023-05-02T01:18:43;12.60;99.90
52273;DHT22;38227;50.942;4.016;2023-05-02T01:21:11;12.60;99.90
52273;DHT22;38227;50.942;4.016;2023-05-02T01:30:07;12.60;99.90
52273;DHT22;38227;50.942;4.016;2023-05-02T01:32:38;12.70;99.90
52273;DHT22;38227;50.942;4.016;2023-05-02T01:35:08;12.60;99.90
52273;DHT22;38227;50.942;4.016;2023-05-02T01:37:37;12.70;99.90
52273;DHT22;38227;50.942;4.016;2023-05-02T01:40:06;12.70;99.90
52273;DHT22;38227;50.942;4.016;2023-05-02T01:42:37;12.60;99.90
52273;DHT22;38227;50.942;4.016;2023-05-02T01:45:07;12.70;99.90
52273;DHT22;38227;50.942;4.016;2023-05-02T01:47:39;12.80;99.90
52273;DHT22;38227;50.942;4.016;2023-05-02T01:50:07;12.70;99.90
52273;DHT22;38227;50.942;4.016;2023-05-02T01:52:40;12.70;99.90
52273;DHT22;38227;50.942;4.016;2023-05-02T01:55:14;12.70;99.90
52273;DHT22;38227;50.942;4.016;2023-05-02T01:57:44;12.60;99.90
52273;DHT22;38227;50.942;4.016;2023-05-02T02:00:15;12.60;99.90
52273;DHT22;38227;50.942;4.016;2023-05-02T02:02:47;12.60;99.90
52273;DHT22;38227;50.942;4.016;2023-05-02T02:05:15;12.60;99.90
52273;DHT22;38227;50.942;4.016;2023-05-02T02:07:48;12.60;99.90
52273;DHT22;38227;50.942;4.016;2023-05-02T02:10:16;12.50;99.90
52273;DHT22;38227;50.942;4.016;2023-05-02T02:13:05;12.50;99.90
52273;DHT22;38227;50.942;4.016;2023-05-02T02:15:37;12.50;99.90
52273;DHT22;38227;50.942;4.016;2023-05-02T02:18:12;12.50;99.90
52273;DHT22;38227;50.942;4.016;2023-05-02T02:20:44;12.50;99.90
52273;DHT22;38227;50.942;4.016;2023-05-02T02:23:14;12.30;99.90
52273;DHT22;38227;50.942;4.016;2023-05-02T02:25:43;12.30;99.90
52273;DHT22;38227;50.942;4.016;2023-05-02T02:28:15;12.30;99.90
52273;DHT22;38227;50.942;4.016;2023-05-02T02:30:48;12.30;99.90
52273;DHT22;38227;50.942;4.016;2023-05-02T02:33:16;12.20;99.90
52273;DHT22;38227;50.942;4.016;2023-05-02T02:35:54;12.10;99.90
52273;DHT22;38227;50.942;4.016;2023-05-02T02:38:56;12.10;99.90
52273;DHT22;38227;50.942;4.016;2023-05-02T02:41:35;12.10;99.90
52273;DHT22;38227;50.942;4.016;2023-05-02T02:47:48;12.10;99.90
52273;DHT22;38227;50.942;4.016;2023-05-02T02:50:29;12.00;99.90
52273;DHT22;38227;50.942;4.016;2023-05-02T02:53:42;12.00;99.90
52273;DHT22;38227;50.942;4.016;2023-05-02T02:56:15;11.90;99.90
52273;DHT22;38227;50.942;4.016;2023-05-02T02:59:04;11.80;99.90
52273;DHT22;38227;50.942;4.016;2023-05-02T03:01:33;11.80;99.90
52273;DHT22;38227;50.942;4.016;2023-05-02T03:04:07;11.70;99.90
52273;DHT22;38227;50.942;4.016;2023-05-02T03:06:39;11.70;99.90
52273;DHT22;38227;50.942;4.016;2023-05-02T03:09:15;11.60;99.90
52273;DHT22;38227;50.942;4.016;2023-05-02T03:11:45;11.60;99.90
52273;DHT22;38227;50.942;4.016;2023-05-02T03:14:19;11.70;99.90
52273;DHT22;38227;50.942;4.016;2023-05-02T03:16:49;11.60;99.90
52273;DHT22;38227;50.942;4.016;2023-05-02T03:19:21;11.60;99.90
52273;DHT22;38227;50.942;4.016;2023-05-02T03:21:49;11.50;99.90
52273;DHT22;38227;50.942;4.016;2023-05-02T03:24:21;11.50;99.90
52273;DHT22;38227;50.942;4.016;2023-05-02T03:26:49;11.40;99.90
52273;DHT22;38227;50.942;4.016;2023-05-02T03:29:21;11.40;99.90
52273;DHT22;38227;50.942;4.016;2023-05-02T03:31:55;11.40;99.90
52273;DHT22;38227;50.942;4.016;2023-05-02T03:34:23;11.40;99.90
52273;DHT22;38227;50.942;4.016;2023-05-02T03:37:01;11.40;99.90
52273;DHT22;38227;50.942;4.016;2023-05-02T03:39:35;11.50;99.90
52273;DHT22;38227;50.942;4.016;2023-05-02T03:42:07;11.60;99.90
52273;DHT22;38227;50.942;4.016;2023-05-02T03:44:38;11.60;99.90
52273;DHT22;38227;50.942;4.016;2023-05-02T03:47:06;11.60;99.90
52273;DHT22;38227;50.942;4.016;2023-05-02T03:49:44;11.60;99.90
52273;DHT22;38227;50.942;4.016;2023-05-02T03:52:12;11.70;99.90
52273;DHT22;38227;50.942;4.016;2023-05-02T03:54:40;11.70;99.90
52273;DHT22;38227;50.942;4.016;2023-05-02T03:57:18;11.80;99.90
52273;DHT22;38227;50.942;4.016;2023-05-02T03:59:46;11.80;99.90
52273;DHT22;38227;50.942;4.016;2023-05-02T04:02:18;11.80;99.90
52273;DHT22;38227;50.942;4.016;2023-05-02T04:04:46;11.80;99.90
52273;DHT22;38227;50.942;4.016;2023-05-02T04:07:14;11.80;99.90
52273;DHT22;38227;50.942;4.016;2023-05-02T04:09:53;11.80;99.90
52273;DHT22;38227;50.942;4.016;2023-05-02T04:12:22;11.80;99.90
52273;DHT22;38227;50.942;4.016;2023-05-02T04:14:59;11.80;99.90
52273;DHT22;38227;50.942;4.016;2023-05-02T04:17:27;11.80;99.90
52273;DHT22;38227;50.942;4.016;2023-05-02T04:20:00;11.80;99.90
52273;DHT22;38227;50.942;4.016;2023-05-02T04:22:28;11.70;99.90
52273;DHT22;38227;50.942;4.016;2023-05-02T04:25:00;11.60;99.90
52273;DHT22;38227;50.942;4.016;2023-05-02T04:27:28;11.60;99.90
52273;DHT22;38227;50.942;4.016;2023-05-02T04:29:56;11.70;99.90
52273;DHT22;38227;50.942;4.016;2023-05-02T04:32:29;11.60;99.90
52273;DHT22;38227;50.942;4.016;2023-05-02T04:34:57;11.60;99.90
52273;DHT22;38227;50.942;4.016;2023-05-02T04:37:29;11.60;99.90
52273;DHT22;38227;50.942;4.016;2023-05-02T04:39:57;11.70;99.90
52273;DHT22;38227;50.942;4.016;2023-05-02T04:42:25;11.80;99.90
52273;DHT22;38227;50.942;4.016;2023-05-02T04:44:56;11.90;99.90
52273;DHT22;38227;50.942;4.016;2023-05-02T04:47:24;11.90;99.90
52273;DHT22;38227;50.942;4.016;2023-05-02T04:49:52;11.90;99.90
52273;DHT22;38227;50.942;4.016;2023-05-02T04:52:24;11.90;99.90
52273;DHT22;38227;50.942;4.016;2023-05-02T04:54:53;12.00;99.90
52273;DHT22;38227;50.942;4.016;2023-05-02T04:57:25;12.00;99.90
52273;DHT22;38227;50.942;4.016;2023-05-02T04:59:53;11.90;99.90
52273;DHT22;38227;50.942;4.016;2023-05-02T05:02:25;11.90;99.90
52273;DHT22;38227;50.942;4.016;2023-05-02T05:04:53;11.90;99.90
52273;DHT22;38227;50.942;4.016;2023-05-02T05:07:21;11.90;99.90
52273;DHT22;38227;50.942;4.016;2023-05-02T05:09:50;12.00;99.90
52273;DHT22;38227;50.942;4.016;2023-05-02T05:12:28;12.00;99.90
52273;DHT22;38227;50.942;4.016;2023-05-02T05:14:56;12.10;99.90
52273;DHT22;38227;50.942;4.016;2023-05-02T05:17:24;12.10;99.90
52273;DHT22;38227;50.942;4.016;2023-05-02T05:20:03;12.20;99.90
52273;DHT22;38227;50.942;4.016;2023-05-02T05:22:41;12.30;99.90
52273;DHT22;38227;50.942;4.016;2023-05-02T05:25:10;12.40;99.90
52273;DHT22;38227;50.942;4.016;2023-05-02T05:27:42;12.30;99.90
52273;DHT22;38227;50.942;4.016;2023-05-02T05:30:11;12.40;99.90
52273;DHT22;38227;50.942;4.016;2023-05-02T05:32:52;12.40;99.90
52273;DHT22;38227;50.942;4.016;2023-05-02T05:35:23;12.40;99.90
52273;DHT22;38227;50.942;4.016;2023-05-02T05:37:58;12.50;99.90
52273;DHT22;38227;50.942;4.016;2023-05-02T05:40:26;12.50;99.90
52273;DHT22;38227;50.942;4.016;2023-05-02T05:42:54;12.50;99.90
52273;DHT22;38227;50.942;4.016;2023-05-02T05:45:32;12.60;99.90
52273;DHT22;38227;50.942;4.016;2023-05-02T05:48:00;12.60;99.90
52273;DHT22;38227;50.942;4.016;2023-05-02T05:50:32;12.60;99.90
52273;DHT22;38227;50.942;4.016;2023-05-02T05:53:08;12.60;99.90
52273;DHT22;38227;50.942;4.016;2023-05-02T05:55:39;12.60;99.90
52273;DHT22;38227;50.942;4.016;2023-05-02T05:58:12;12.70;99.90
52273;DHT22;38227;50.942;4.016;2023-05-02T06:00:46;12.80;99.90
52273;DHT22;38227;50.942;4.016;2023-05-02T06:03:15;12.80;99.90
52273;DHT22;38227;50.942;4.016;2023-05-02T06:05:52;12.70;99.90
52273;DHT22;38227;50.942;4.016;2023-05-02T06:08:27;12.60;99.90
52273;DHT22;38227;50.942;4.016;2023-05-02T06:10:58;12.80;99.90
52273;DHT22;38227;50.942;4.016;2023-05-02T06:13:29;12.60;99.90
52273;DHT22;38227;50.942;4.016;2023-05-02T06:16:02;12.70;99.90
52273;DHT22;38227;50.942;4.016;2023-05-02T06:18:31;12.70;99.90
52273;DHT22;38227;50.942;4.016;2023-05-02T06:21:04;12.70;99.90
52273;DHT22;38227;50.942;4.016;2023-05-02T06:23:34;12.60;99.90
52273;DHT22;38227;50.942;4.016;2023-05-02T06:26:04;12.70;99.90
52273;DHT22;38227;50.942;4.016;2023-05-02T06:28:33;12.70;99.90
52273;DHT22;38227;50.942;4.016;2023-05-02T06:31:03;12.80;99.90
52273;DHT22;38227;50.942;4.016;2023-05-02T06:33:33;12.70;99.90
52273;DHT22;38227;50.942;4.016;2023-05-02T06:36:01;12.80;99.90
52273;DHT22;38227;50.942;4.016;2023-05-02T06:38:31;12.70;99.90
52273;DHT22;38227;50.942;4.016;2023-05-02T06:40:59;12.60;99.90
52273;DHT22;38227;50.942;4.016;2023-05-02T06:43:27;12.80;99.90
52273;DHT22;38227;50.942;4.016;2023-05-02T06:45:57;13.10;99.90
52273;DHT22;38227;50.942;4.016;2023-05-02T06:48:26;13.40;99.90
52273;DHT22;38227;50.942;4.016;2023-05-02T06:50:55;14.30;99.90
52273;DHT22;38227;50.942;4.016;2023-05-02T06:53:26;15.10;99.90
52273;DHT22;38227;50.942;4.016;2023-05-02T06:55:59;15.70;99.90
52273;DHT22;38227;50.942;4.016;2023-05-02T06:58:32;15.70;99.90
52273;DHT22;38227;50.942;4.016;2023-05-02T07:01:05;15.30;99.90
52273;DHT22;38227;50.942;4.016;2023-05-02T07:03:33;15.10;99.90
52273;DHT22;38227;50.942;4.016;2023-05-02T07:06:13;14.90;99.90
52273;DHT22;38227;50.942;4.016;2023-05-02T07:08:40;14.70;99.90
52273;DHT22;38227;50.942;4.016;2023-05-02T07:11:09;14.60;99.90
52273;DHT22;38227;50.942;4.016;2023-05-02T07:13:37;14.50;99.90
52273;DHT22;38227;50.942;4.016;2023-05-02T07:16:07;14.50;99.90
52273;DHT22;38227;50.942;4.016;2023-05-02T07:18:35;14.80;99.90
52273;DHT22;38227;50.942;4.016;2023-05-02T07:21:13;16.10;99.90
52273;DHT22;38227;50.942;4.016;2023-05-02T07:23:46;17.30;99.90
52273;DHT22;38227;50.942;4.016;2023-05-02T07:26:15;18.90;97.90
52273;DHT22;38227;50.942;4.016;2023-05-02T07:28:43;20.30;94.10
52273;DHT22;38227;50.942;4.016;2023-05-02T07:31:12;20.70;92.40
52273;DHT22;38227;50.942;4.016;2023-05-02T07:33:45;22.00;90.70
52273;DHT22;38227;50.942;4.016;2023-05-02T07:36:13;23.70;85.70
52273;DHT22;38227;50.942;4.016;2023-05-02T07:38:43;24.70;79.50
52273;DHT22;38227;50.942;4.016;2023-05-02T07:41:13;24.70;74.40
52273;DHT22;38227;50.942;4.016;2023-05-02T07:43:54;24.90;74.10
52273;DHT22;38227;50.942;4.016;2023-05-02T07:46:24;24.50;72.00
52273;DHT22;38227;50.942;4.016;2023-05-02T07:48:55;23.20;75.40
52273;DHT22;38227;50.942;4.016;2023-05-02T07:51:23;22.50;77.80
52273;DHT22;38227;50.942;4.016;2023-05-02T07:53:53;21.60;80.10
52273;DHT22;38227;50.942;4.016;2023-05-02T07:56:26;20.50;83.30
52273;DHT22;38227;50.942;4.016;2023-05-02T07:59:04;20.00;86.40
52273;DHT22;38227;50.942;4.016;2023-05-02T08:01:32;20.40;83.80
52273;DHT22;38227;50.942;4.016;2023-05-02T08:04:00;19.80;84.90
52273;DHT22;38227;50.942;4.016;2023-05-02T08:06:29;19.30;87.30
52273;DHT22;38227;50.942;4.016;2023-05-02T08:08:58;18.90;89.80
52273;DHT22;38227;50.942;4.016;2023-05-02T08:11:26;18.30;91.90
52273;DHT22;38227;50.942;4.016;2023-05-02T08:13:54;18.80;91.30
52273;DHT22;38227;50.942;4.016;2023-05-02T08:16:23;18.80;91.00
52273;DHT22;38227;50.942;4.016;2023-05-02T08:18:51;18.40;91.50
52273;DHT22;38227;50.942;4.016;2023-05-02T08:21:20;17.80;92.90
52273;DHT22;38227;50.942;4.016;2023-05-02T08:23:48;17.60;93.20
52273;DHT22;38227;50.942;4.016;2023-05-02T08:26:20;17.30;93.70
52273;DHT22;38227;50.942;4.016;2023-05-02T08:28:51;17.90;93.50
52273;DHT22;38227;50.942;4.016;2023-05-02T08:31:22;18.30;92.10
52273;DHT22;38227;50.942;4.016;2023-05-02T08:33:50;18.10;91.80
52273;DHT22;38227;50.942;4.016;2023-05-02T08:36:20;18.00;92.10
52273;DHT22;38227;50.942;4.016;2023-05-02T08:38:48;18.10;92.60
52273;DHT22;38227;50.942;4.016;2023-05-02T08:41:19;19.00;92.00
52273;DHT22;38227;50.942;4.016;2023-05-02T08:43:48;19.10;90.80
52273;DHT22;38227;50.942;4.016;2023-05-02T08:46:17;19.10;91.40
52273;DHT22;38227;50.942;4.016;2023-05-02T08:48:50;20.00;90.70
52273;DHT22;38227;50.942;4.016;2023-05-02T08:51:23;21.10;85.30
52273;DHT22;38227;50.942;4.016;2023-05-02T08:53:52;22.40;80.70
52273;DHT22;38227;50.942;4.016;2023-05-02T08:56:25;22.40;81.10
52273;DHT22;38227;50.942;4.016;2023-05-02T08:58:57;21.30;80.70
52273;DHT22;38227;50.942;4.016;2023-05-02T09:01:30;21.20;83.50
52273;DHT22;38227;50.942;4.016;2023-05-02T09:03:59;21.90;80.40
52273;DHT22;38227;50.942;4.016;2023-05-02T09:06:31;22.50;77.40
52273;DHT22;38227;50.942;4.016;2023-05-02T09:09:00;23.20;79.40
52273;DHT22;38227;50.942;4.016;2023-05-02T09:11:29;23.80;74.40
52273;DHT22;38227;50.942;4.016;2023-05-02T09:14:00;23.90;73.40
52273;DHT22;38227;50.942;4.016;2023-05-02T09:16:37;24.40;72.20
52273;DHT22;38227;50.942;4.016;2023-05-02T09:19:05;24.70;70.20
52273;DHT22;38227;50.942;4.016;2023-05-02T09:21:39;24.80;69.50
52273;DHT22;38227;50.942;4.016;2023-05-02T09:24:18;25.10;68.20
52273;DHT22;38227;50.942;4.016;2023-05-02T09:27:04;25.40;67.40
52273;DHT22;38227;50.942;4.016;2023-05-02T09:29:42;25.40;68.40
52273;DHT22;38227;50.942;4.016;2023-05-02T09:32:12;25.30;67.00
52273;DHT22;38227;50.942;4.016;2023-05-02T09:35:03;25.20;67.90
52273;DHT22;38227;50.942;4.016;2023-05-02T09:37:34;25.30;64.60
52273;DHT22;38227;50.942;4.016;2023-05-02T09:40:07;25.40;65.60
52273;DHT22;38227;50.942;4.016;2023-05-02T09:42:38;25.20;65.60
52273;DHT22;38227;50.942;4.016;2023-05-02T09:45:16;24.50;66.40
52273;DHT22;38227;50.942;4.016;2023-05-02T09:47:50;24.30;69.40
52273;DHT22;38227;50.942;4.016;2023-05-02T09:50:36;24.10;69.40
52273;DHT22;38227;50.942;4.016;2023-05-02T09:53:08;23.90;70.70
52273;DHT22;38227;50.942;4.016;2023-05-02T09:55:38;22.90;70.60
52273;DHT22;38227;50.942;4.016;2023-05-02T09:58:18;22.10;71.30
52273;DHT22;38227;50.942;4.016;2023-05-02T10:00:47;22.30;71.10
52273;DHT22;38227;50.942;4.016;2023-05-02T10:03:18;22.80;70.10
52273;DHT22;38227;50.942;4.016;2023-05-02T10:05:52;23.70;71.80
52273;DHT22;38227;50.942;4.016;2023-05-02T10:08:25;23.60;67.20
52273;DHT22;38227;50.942;4.016;2023-05-02T10:10:57;22.70;71.00
52273;DHT22;38227;50.942;4.016;2023-05-02T10:13:27;22.90;70.80
52273;DHT22;38227;50.942;4.016;2023-05-02T10:16:04;23.10;69.50
52273;DHT22;38227;50.942;4.016;2023-05-02T10:18:58;23.70;67.50
52273;DHT22;38227;50.942;4.016;2023-05-02T10:21:31;24.00;66.50
52273;DHT22;38227;50.942;4.016;2023-05-02T10:24:04;24.10;66.10
52273;DHT22;38227;50.942;4.016;2023-05-02T10:26:34;24.10;64.10
52273;DHT22;38227;50.942;4.016;2023-05-02T10:29:02;23.70;66.00
52273;DHT22;38227;50.942;4.016;2023-05-02T10:31:33;23.50;65.40
52273;DHT22;38227;50.942;4.016;2023-05-02T10:34:03;22.50;68.90
52273;DHT22;38227;50.942;4.016;2023-05-02T10:36:39;21.90;69.80
52273;DHT22;38227;50.942;4.016;2023-05-02T10:39:08;21.60;72.60
52273;DHT22;38227;50.942;4.016;2023-05-02T10:41:37;21.10;72.10
52273;DHT22;38227;50.942;4.016;2023-05-02T10:44:06;21.10;73.30
52273;DHT22;38227;50.942;4.016;2023-05-02T10:46:39;21.30;72.40
52273;DHT22;38227;50.942;4.016;2023-05-02T10:49:10;21.20;72.60
52273;DHT22;38227;50.942;4.016;2023-05-02T10:51:41;20.60;75.30
52273;DHT22;38227;50.942;4.016;2023-05-02T10:54:37;20.60;74.70
52273;DHT22;38227;50.942;4.016;2023-05-02T10:57:06;20.40;75.70
52273;DHT22;38227;50.942;4.016;2023-05-02T10:59:53;20.10;75.80
52273;DHT22;38227;50.942;4.016;2023-05-02T11:03:00;20.00;75.00
52273;DHT22;38227;50.942;4.016;2023-05-02T11:05:29;19.70;75.90
52273;DHT22;38227;50.942;4.016;2023-05-02T11:12:57;19.70;75.70
52273;DHT22;38227;50.942;4.016;2023-05-02T11:18:58;19.90;75.80
52273;DHT22;38227;50.942;4.016;2023-05-02T11:21:29;20.00;73.70
52273;DHT22;38227;50.942;4.016;2023-05-02T11:27:39;19.60;74.10
52273;DHT22;38227;50.942;4.016;2023-05-02T11:30:09;19.50;76.30
52273;DHT22;38227;50.942;4.016;2023-05-02T11:35:50;19.50;77.00
52273;DHT22;38227;50.942;4.016;2023-05-02T11:38:19;19.60;77.70
52273;DHT22;38227;50.942;4.016;2023-05-02T11:40:54;19.70;76.00
52273;DHT22;38227;50.942;4.016;2023-05-02T11:43:25;19.50;76.90
52273;DHT22;38227;50.942;4.016;2023-05-02T11:45:57;19.50;77.70
52273;DHT22;38227;50.942;4.016;2023-05-02T11:48:26;19.50;74.40
52273;DHT22;38227;50.942;4.016;2023-05-02T11:50:59;19.60;74.00
52273;DHT22;38227;50.942;4.016;2023-05-02T11:53:31;19.40;77.50
52273;DHT22;38227;50.942;4.016;2023-05-02T11:56:03;19.30;76.70
52273;DHT22;38227;50.942;4.016;2023-05-02T11:58:35;19.50;76.00
52273;DHT22;38227;50.942;4.016;2023-05-02T12:01:15;19.40;77.10
52273;DHT22;38227;50.942;4.016;2023-05-02T12:03:44;19.20;77.60
52273;DHT22;38227;50.942;4.016;2023-05-02T12:06:16;18.90;76.50
52273;DHT22;38227;50.942;4.016;2023-05-02T12:08:49;19.10;75.70
52273;DHT22;38227;50.942;4.016;2023-05-02T12:11:23;19.10;76.60
52273;DHT22;38227;50.942;4.016;2023-05-02T12:14:04;19.30;77.20
52273;DHT22;38227;50.942;4.016;2023-05-02T12:16:33;19.20;76.10
52273;DHT22;38227;50.942;4.016;2023-05-02T12:19:00;19.20;76.50
52273;DHT22;38227;50.942;4.016;2023-05-02T12:21:30;19.00;77.20
52273;DHT22;38227;50.942;4.016;2023-05-02T12:24:01;19.10;77.20
52273;DHT22;38227;50.942;4.016;2023-05-02T12:26:29;19.10;77.50
52273;DHT22;38227;50.942;4.016;2023-05-02T12:28:59;19.20;75.80
52273;DHT22;38227;50.942;4.016;2023-05-02T12:31:27;19.20;77.90
52273;DHT22;38227;50.942;4.016;2023-05-02T12:33:56;18.90;76.00
52273;DHT22;38227;50.942;4.016;2023-05-02T12:36:32;18.80;78.80
52273;DHT22;38227;50.942;4.016;2023-05-02T12:39:00;18.80;78.80
52273;DHT22;38227;50.942;4.016;2023-05-02T12:41:35;19.00;77.80
52273;DHT22;38227;50.942;4.016;2023-05-02T12:44:05;18.50;78.10
52273;DHT22;38227;50.942;4.016;2023-05-02T12:46:36;18.50;77.90
52273;DHT22;38227;50.942;4.016;2023-05-02T12:51:58;18.70;77.30
52273;DHT22;38227;50.942;4.016;2023-05-02T12:54:26;18.80;76.20
52273;DHT22;38227;50.942;4.016;2023-05-02T12:56:57;18.90;75.50
52273;DHT22;38227;50.942;4.016;2023-05-02T12:59:30;18.80;75.70
52273;DHT22;38227;50.942;4.016;2023-05-02T13:02:03;18.60;76.40
52273;DHT22;38227;50.942;4.016;2023-05-02T13:08:20;18.40;79.60
52273;DHT22;38227;50.942;4.016;2023-05-02T13:14:34;18.40;77.50
52273;DHT22;38227;50.942;4.016;2023-05-02T13:17:12;18.50;77.90
52273;DHT22;38227;50.942;4.016;2023-05-02T13:19:52;18.40;79.50
52273;DHT22;38227;50.942;4.016;2023-05-02T13:22:44;18.30;79.80
52273;DHT22;38227;50.942;4.016;2023-05-02T13:25:18;18.40;78.70
52273;DHT22;38227;50.942;4.016;2023-05-02T13:27:48;18.50;78.50
52273;DHT22;38227;50.942;4.016;2023-05-02T13:30:31;18.40;78.10
52273;DHT22;38227;50.942;4.016;2023-05-02T13:33:08;18.60;78.00
52273;DHT22;38227;50.942;4.016;2023-05-02T13:35:47;18.40;78.70
52273;DHT22;38227;50.942;4.016;2023-05-02T13:38:29;18.50;80.40
52273;DHT22;38227;50.942;4.016;2023-05-02T13:41:28;18.30;80.10
52273;DHT22;38227;50.942;4.016;2023-05-02T13:44:10;18.30;80.70
52273;DHT22;38227;50.942;4.016;2023-05-02T13:46:53;18.40;79.50
52273;DHT22;38227;50.942;4.016;2023-05-02T13:49:41;18.40;79.20
52273;DHT22;38227;50.942;4.016;2023-05-02T13:52:10;18.50;78.50
52273;DHT22;38227;50.942;4.016;2023-05-02T13:54:47;18.40;79.10
52273;DHT22;38227;50.942;4.016;2023-05-02T13:57:33;17.80;77.90
52273;DHT22;38227;50.942;4.016;2023-05-02T14:00:11;17.90;77.20
52273;DHT22;38227;50.942;4.016;2023-05-02T14:02:41;17.90;78.00
52273;DHT22;38227;50.942;4.016;2023-05-02T14:05:19;17.90;77.20
52273;DHT22;38227;50.942;4.016;2023-05-02T14:07:56;17.90;76.20
52273;DHT22;38227;50.942;4.016;2023-05-02T14:10:32;17.90;78.30
52273;DHT22;38227;50.942;4.016;2023-05-02T14:13:03;17.90;78.00
52273;DHT22;38227;50.942;4.016;2023-05-02T14:15:38;17.90;76.40
52273;DHT22;38227;50.942;4.016;2023-05-02T14:18:13;17.90;75.80
52273;DHT22;38227;50.942;4.016;2023-05-02T14:20:51;17.60;77.90
52273;DHT22;38227;50.942;4.016;2023-05-02T14:23:25;17.50;76.50
52273;DHT22;38227;50.942;4.016;2023-05-02T14:26:05;17.60;78.50
52273;DHT22;38227;50.942;4.016;2023-05-02T14:28:43;17.60;77.60
52273;DHT22;38227;50.942;4.016;2023-05-02T14:31:13;17.80;76.70
52273;DHT22;38227;50.942;4.016;2023-05-02T14:33:52;17.80;77.20
52273;DHT22;38227;50.942;4.016;2023-05-02T14:36:27;17.90;77.40
52273;DHT22;38227;50.942;4.016;2023-05-02T14:39:02;17.90;77.70
52273;DHT22;38227;50.942;4.016;2023-05-02T14:41:38;17.70;78.10
52273;DHT22;38227;50.942;4.016;2023-05-02T14:44:12;17.50;76.50
52273;DHT22;38227;50.942;4.016;2023-05-02T14:46:52;17.20;76.80
52273;DHT22;38227;50.942;4.016;2023-05-02T14:49:21;17.00;77.50
52273;DHT22;38227;50.942;4.016;2023-05-02T14:51:50;17.10;78.30
52273;DHT22;38227;50.942;4.016;2023-05-02T14:54:26;17.10;77.60
52273;DHT22;38227;50.942;4.016;2023-05-02T14:56:59;17.20;77.10
52273;DHT22;38227;50.942;4.016;2023-05-02T14:59:29;17.30;78.00
52273;DHT22;38227;50.942;4.016;2023-05-02T15:02:01;17.40;78.10
52273;DHT22;38227;50.942;4.016;2023-05-02T15:04:33;17.20;77.40
52273;DHT22;38227;50.942;4.016;2023-05-02T15:07:15;17.10;77.00
52273;DHT22;38227;50.942;4.016;2023-05-02T15:09:47;17.30;75.80
52273;DHT22;38227;50.942;4.016;2023-05-02T15:12:31;17.40;75.10
52273;DHT22;38227;50.942;4.016;2023-05-02T15:14:58;17.50;73.40
52273;DHT22;38227;50.942;4.016;2023-05-02T15:17:30;17.60;72.00
52273;DHT22;38227;50.942;4.016;2023-05-02T15:20:05;17.30;74.20
52273;DHT22;38227;50.942;4.016;2023-05-02T15:22:42;17.30;75.10
52273;DHT22;38227;50.942;4.016;2023-05-02T15:25:13;17.30;75.00
52273;DHT22;38227;50.942;4.016;2023-05-02T15:27:45;17.20;74.70
52273;DHT22;38227;50.942;4.016;2023-05-02T15:30:26;17.10;74.60
52273;DHT22;38227;50.942;4.016;2023-05-02T15:32:57;17.20;75.70
52273;DHT22;38227;50.942;4.016;2023-05-02T15:35:25;17.10;75.30
52273;DHT22;38227;50.942;4.016;2023-05-02T15:38:02;17.20;76.70
52273;DHT22;38227;50.942;4.016;2023-05-02T15:40:31;17.30;76.00
52273;DHT22;38227;50.942;4.016;2023-05-02T15:43:07;17.40;76.20
52273;DHT22;38227;50.942;4.016;2023-05-02T15:45:38;17.20;78.80
52273;DHT22;38227;50.942;4.016;2023-05-02T15:48:08;17.30;78.60
52273;DHT22;38227;50.942;4.016;2023-05-02T15:50:41;17.30;77.50
52273;DHT22;38227;50.942;4.016;2023-05-02T15:53:17;17.40;76.90
52273;DHT22;38227;50.942;4.016;2023-05-02T15:55:50;17.40;76.80
52273;DHT22;38227;50.942;4.016;2023-05-02T15:58:20;17.30;77.00
52273;DHT22;38227;50.942;4.016;2023-05-02T16:00:53;17.30;77.00
52273;DHT22;38227;50.942;4.016;2023-05-02T16:03:23;17.30;75.90
52273;DHT22;38227;50.942;4.016;2023-05-02T16:05:53;17.20;75.80
52273;DHT22;38227;50.942;4.016;2023-05-02T16:08:24;17.20;75.90
52273;DHT22;38227;50.942;4.016;2023-05-02T16:10:55;17.10;77.40
52273;DHT22;38227;50.942;4.016;2023-05-02T16:13:26;17.10;75.30
52273;DHT22;38227;50.942;4.016;2023-05-02T16:15:55;17.10;76.00
52273;DHT22;38227;50.942;4.016;2023-05-02T16:18:25;17.10;77.30
52273;DHT22;38227;50.942;4.016;2023-05-02T16:20:56;17.00;77.70
52273;DHT22;38227;50.942;4.016;2023-05-02T16:23:24;17.10;76.80
52273;DHT22;38227;50.942;4.016;2023-05-02T16:25:59;17.10;77.90
52273;DHT22;38227;50.942;4.016;2023-05-02T16:28:33;17.00;77.50
52273;DHT22;38227;50.942;4.016;2023-05-02T16:31:06;17.00;77.20
52273;DHT22;38227;50.942;4.016;2023-05-02T16:33:36;16.90;77.30
52273;DHT22;38227;50.942;4.016;2023-05-02T16:36:10;16.90;78.60
52273;DHT22;38227;50.942;4.016;2023-05-02T16:38:39;16.80;79.40
52273;DHT22;38227;50.942;4.016;2023-05-02T16:41:08;16.90;79.40
52273;DHT22;38227;50.942;4.016;2023-05-02T16:43:36;16.80;80.20
52273;DHT22;38227;50.942;4.016;2023-05-02T16:46:05;16.60;81.50